createdAt,value
2018-06-21T00:02:16.170Z,17.40
2018-06-21T00:04:45.483Z,17.60
2018-06-21T00:07:19.783Z,17.60
2018-06-21T00:09:49.149Z,17.70
2018-06-21T00:12:18.312Z,18.00
2018-06-21T00:14:48.104Z,18.10
2018-06-21T00:17:17.500Z,18.30
2018-06-21T00:19:46.630Z,18.40
2018-06-21T00:22:16.425Z,18.60
2018-06-21T00:24:45.691Z,18.70
2018-06-21T00:27:14.867Z,18.80
2018-06-21T00:29:44.302Z,18.80
2018-06-21T00:32:13.485Z,18.80
2018-06-21T00:34:42.668Z,18.80
2018-06-21T00:37:12.107Z,18.80
2018-06-21T00:39:41.264Z,18.80
2018-06-21T00:42:10.815Z,18.90
2018-06-21T00:44:40.020Z,18.90
2018-06-21T00:47:09.188Z,18.90
2018-06-21T00:49:38.393Z,18.90
2018-06-21T00:52:08.144Z,18.90
2018-06-21T00:54:37.790Z,18.90
2018-06-21T00:57:07.199Z,18.90
2018-06-21T00:59:36.384Z,19.00
2018-06-21T01:02:05.598Z,19.00
2018-06-21T01:04:34.760Z,19.10
2018-06-21T01:07:03.962Z,19.10
2018-06-21T01:09:34.153Z,19.10
2018-06-21T01:12:03.340Z,19.20
2018-06-21T01:14:33.511Z,19.30
2018-06-21T01:17:02.705Z,19.30
2018-06-21T01:19:32.856Z,19.40
2018-06-21T01:22:02.014Z,19.40
2018-06-21T01:24:31.259Z,19.40
2018-06-21T01:27:00.469Z,19.40
2018-06-21T01:29:29.622Z,19.40
2018-06-21T01:31:58.860Z,19.40
2018-06-21T01:36:56.831Z,19.50
2018-06-21T01:39:26.070Z,19.50
2018-06-21T01:41:55.208Z,19.60
2018-06-21T01:44:24.464Z,19.70
2018-06-21T01:46:53.622Z,19.60
2018-06-21T01:49:22.955Z,19.60
2018-06-21T01:51:52.509Z,19.60
2018-06-21T01:54:21.862Z,19.40
2018-06-21T01:56:51.822Z,19.50
2018-06-21T01:59:21.412Z,19.50
2018-06-21T02:01:50.846Z,19.60
2018-06-21T02:04:20.262Z,19.50
2018-06-21T02:06:49.740Z,19.60
2018-06-21T02:09:19.199Z,19.70
2018-06-21T02:11:48.688Z,19.70
2018-06-21T02:14:18.174Z,19.80
2018-06-21T02:19:16.772Z,19.80
2018-06-21T02:21:46.335Z,19.80
2018-06-21T02:24:16.063Z,19.80
2018-06-21T02:26:45.658Z,19.70
2018-06-21T02:29:15.335Z,19.70
2018-06-21T02:31:45.011Z,19.70
2018-06-21T02:34:14.690Z,19.70
2018-06-21T02:39:13.424Z,19.60
2018-06-21T02:41:43.068Z,19.60
2018-06-21T02:44:12.682Z,19.70
2018-06-21T02:46:42.299Z,19.60
2018-06-21T02:49:11.873Z,19.50
2018-06-21T02:51:55.493Z,19.50
2018-06-21T02:54:25.142Z,19.60
2018-06-21T02:56:54.834Z,19.60
2018-06-21T02:59:25.027Z,19.40
2018-06-21T03:01:54.673Z,19.40
2018-06-21T03:04:24.460Z,19.50
2018-06-21T03:06:54.231Z,19.50
2018-06-21T03:09:24.183Z,19.50
2018-06-21T03:11:53.870Z,19.40
2018-06-21T03:14:23.463Z,19.40
2018-06-21T03:16:53.287Z,19.30
2018-06-21T03:20:11.976Z,19.20
2018-06-21T03:22:43.316Z,19.20
2018-06-21T03:25:13.153Z,19.10
2018-06-21T03:27:46.515Z,18.90
2018-06-21T03:30:16.700Z,18.90
2018-06-21T03:33:04.265Z,18.70
2018-06-21T03:38:25.627Z,18.70
2018-06-21T03:40:55.612Z,18.60
2018-06-21T03:43:26.304Z,18.60
2018-06-21T03:45:56.313Z,18.60
2018-06-21T03:48:27.804Z,18.40
2018-06-21T03:50:57.774Z,18.40
2018-06-21T03:53:28.096Z,18.30
2018-06-21T03:55:58.038Z,18.40
2018-06-21T03:58:28.265Z,18.40
2018-06-21T04:00:58.167Z,18.40
2018-06-21T04:03:28.295Z,18.40
2018-06-21T04:05:58.361Z,18.40
2018-06-21T04:08:28.447Z,18.30
2018-06-21T04:10:58.432Z,18.40
2018-06-21T04:13:28.483Z,18.40
2018-06-21T04:15:58.484Z,18.30
2018-06-21T04:18:33.751Z,18.20
2018-06-21T04:21:04.295Z,18.20
2018-06-21T04:23:34.357Z,18.30
2018-06-21T04:26:04.492Z,18.30
2018-06-21T04:28:35.138Z,18.30
2018-06-21T04:31:05.149Z,18.20
2018-06-21T04:33:35.467Z,18.20
2018-06-21T04:36:05.545Z,18.30
2018-06-21T04:38:35.688Z,18.30
2018-06-21T04:41:05.729Z,18.30
2018-06-21T04:43:36.629Z,18.20
2018-06-21T04:46:06.621Z,18.10
2018-06-21T04:48:36.676Z,18.10
2018-06-21T04:51:06.764Z,18.10
2018-06-21T04:53:37.319Z,18.10
2018-06-21T04:56:08.259Z,18.20
2018-06-21T04:58:38.218Z,18.10
2018-06-21T05:01:08.845Z,18.00
2018-06-21T05:03:38.762Z,18.00
2018-06-21T05:06:08.732Z,18.10
2018-06-21T05:08:38.694Z,18.00
2018-06-21T05:11:08.584Z,17.90
2018-06-21T05:13:38.708Z,17.90
2018-06-21T05:16:08.596Z,18.00
2018-06-21T05:18:38.496Z,18.00
2018-06-21T05:21:08.351Z,17.80
2018-06-21T05:23:38.630Z,17.90
2018-06-21T05:26:08.482Z,17.70
2018-06-21T05:28:38.544Z,17.80
2018-06-21T05:31:08.480Z,17.70
2018-06-21T05:33:38.452Z,17.60
2018-06-21T05:36:08.561Z,17.70
2018-06-21T05:38:38.518Z,17.80
2018-06-21T05:41:08.387Z,17.80
2018-06-21T05:43:38.502Z,17.90
2018-06-21T05:46:08.380Z,17.90
2018-06-21T05:48:38.348Z,17.80
2018-06-21T05:51:08.277Z,17.80
2018-06-21T05:53:38.211Z,18.00
2018-06-21T05:56:08.438Z,18.00
2018-06-21T05:58:38.396Z,18.00
2018-06-21T06:01:08.295Z,18.00
2018-06-21T06:03:38.328Z,17.90
2018-06-21T06:06:09.014Z,17.70
2018-06-21T06:08:38.973Z,17.80
2018-06-21T06:11:09.227Z,17.90
2018-06-21T06:13:39.184Z,17.80
2018-06-21T06:16:09.808Z,17.70
2018-06-21T06:18:39.744Z,17.60
2018-06-21T06:21:09.637Z,17.60
2018-06-21T06:23:39.577Z,17.80
2018-06-21T06:26:09.507Z,17.70
2018-06-21T06:28:39.779Z,17.90
2018-06-21T06:31:09.662Z,18.10
2018-06-21T06:33:44.085Z,18.20
2018-06-21T06:36:13.838Z,18.10
2018-06-21T06:38:43.695Z,18.10
2018-06-21T06:41:13.486Z,17.80
2018-06-21T06:43:43.844Z,17.60
2018-06-21T06:46:13.689Z,17.60
2018-06-21T06:48:43.482Z,17.50
2018-06-21T06:51:14.096Z,17.30
2018-06-21T06:53:43.944Z,17.30
2018-06-21T06:56:14.047Z,17.10
2018-06-21T06:58:43.789Z,17.20
2018-06-21T07:01:13.627Z,17.40
2018-06-21T07:03:43.402Z,17.50
2018-06-21T07:06:13.186Z,17.60
2018-06-21T07:08:42.970Z,17.60
2018-06-21T07:11:12.861Z,17.70
2018-06-21T07:13:42.703Z,17.90
2018-06-21T07:16:12.503Z,18.10
2018-06-21T07:18:42.291Z,18.20
2018-06-21T07:21:12.321Z,18.30
2018-06-21T07:23:42.856Z,18.40
2018-06-21T07:26:13.533Z,18.50
2018-06-21T07:28:43.320Z,18.30
2018-06-21T07:31:13.093Z,18.50
2018-06-21T07:33:42.833Z,18.50
2018-06-21T07:36:12.624Z,18.60
2018-06-21T07:38:42.442Z,18.50
2018-06-21T07:41:12.288Z,18.80
2018-06-21T07:43:42.070Z,19.00
2018-06-21T07:46:11.898Z,19.10
2018-06-21T07:48:42.724Z,19.00
2018-06-21T07:51:12.484Z,19.10
2018-06-21T07:53:43.473Z,19.20
2018-06-21T07:56:13.859Z,19.20
2018-06-21T07:58:43.624Z,19.10
2018-06-21T08:01:13.375Z,19.10
2018-06-21T08:03:43.073Z,19.00
2018-06-21T08:06:12.843Z,18.60
2018-06-21T08:08:42.608Z,18.60
2018-06-21T08:11:12.346Z,18.30
2018-06-21T08:16:11.402Z,18.10
2018-06-21T08:18:41.157Z,18.50
2018-06-21T08:21:10.942Z,18.50
2018-06-21T08:23:40.675Z,18.50
2018-06-21T08:26:10.710Z,18.50
2018-06-21T08:28:40.513Z,18.50
2018-06-21T08:31:10.277Z,18.80
2018-06-21T08:33:40.094Z,19.00
2018-06-21T08:36:10.196Z,19.80
2018-06-21T08:38:39.982Z,21.00
2018-06-21T08:41:09.795Z,22.10
2018-06-21T08:43:39.651Z,21.40
2018-06-21T08:46:09.652Z,20.80
2018-06-21T08:48:39.477Z,20.30
2018-06-21T08:51:09.223Z,19.50
2018-06-21T08:53:39.162Z,19.10
2018-06-21T08:56:08.991Z,18.70
2018-06-21T08:58:38.746Z,18.10
2018-06-21T09:01:08.541Z,18.40
2018-06-21T09:03:38.322Z,19.20
2018-06-21T09:06:08.163Z,19.70
2018-06-21T09:17:11.974Z,20.90
2018-06-21T09:19:42.657Z,20.70
2018-06-21T09:22:13.412Z,20.20
2018-06-21T09:24:44.258Z,20.20
2018-06-21T09:27:14.980Z,20.50
2018-06-21T09:29:45.982Z,20.70
2018-06-21T09:32:16.656Z,21.20
2018-06-21T09:34:47.630Z,21.30
2018-06-21T09:37:22.254Z,21.70
2018-06-21T09:42:32.443Z,22.20
2018-06-21T09:45:03.195Z,22.80
2018-06-21T09:47:38.607Z,23.10
2018-06-21T09:50:09.337Z,22.50
2018-06-21T09:52:39.992Z,21.80
2018-06-21T09:55:10.886Z,21.10
2018-06-21T09:57:41.585Z,21.00
2018-06-21T10:00:17.064Z,21.10
2018-06-21T10:02:47.840Z,21.30
2018-06-21T10:07:48.681Z,21.40
2018-06-21T10:12:49.356Z,21.50
2018-06-21T10:15:20.101Z,21.30
2018-06-21T10:17:51.292Z,21.70
2018-06-21T10:20:22.076Z,22.20
2018-06-21T10:22:52.909Z,21.90
2018-06-21T10:25:24.279Z,21.90
2018-06-21T10:27:55.095Z,21.40
2018-06-21T10:30:25.847Z,21.40
2018-06-21T10:32:56.899Z,21.10
2018-06-21T10:35:27.703Z,20.80
2018-06-21T10:37:58.367Z,19.90
2018-06-21T10:40:29.214Z,20.50
2018-06-21T10:42:59.926Z,21.30
2018-06-21T10:45:30.640Z,21.90
2018-06-21T10:48:01.396Z,21.90
2018-06-21T10:50:32.062Z,21.70
2018-06-21T10:53:02.816Z,21.00
2018-06-21T10:55:33.500Z,20.50
2018-06-21T10:58:04.392Z,20.70
2018-06-21T11:00:35.090Z,21.10
2018-06-21T11:03:07.661Z,21.70
2018-06-21T11:08:28.347Z,21.90
2018-06-21T11:10:57.566Z,22.60
2018-06-21T11:13:27.901Z,22.80
2018-06-21T11:15:58.230Z,22.80
2018-06-21T11:18:28.731Z,22.80
2018-06-21T11:20:58.787Z,22.00
2018-06-21T11:23:29.272Z,21.60
2018-06-21T11:25:59.231Z,21.80
2018-06-21T11:28:29.660Z,22.10
2018-06-21T11:31:00.767Z,22.40
2018-06-21T11:33:30.820Z,21.90
2018-06-21T11:36:01.115Z,21.60
2018-06-21T11:38:31.130Z,21.70
2018-06-21T11:41:01.019Z,22.10
2018-06-21T11:43:31.369Z,22.40
2018-06-21T11:46:01.256Z,22.00
2018-06-21T11:48:31.265Z,21.90
2018-06-21T11:51:01.953Z,21.50
2018-06-21T11:53:31.949Z,21.40
2018-06-21T11:56:01.811Z,21.50
2018-06-21T11:58:31.865Z,21.80
2018-06-21T12:01:01.896Z,22.10
2018-06-21T12:03:31.986Z,22.50
2018-06-21T12:06:01.903Z,22.60
2018-06-21T12:08:31.844Z,23.00
2018-06-21T12:13:31.667Z,23.50
2018-06-21T12:18:31.202Z,23.60
2018-06-21T12:21:01.487Z,23.30
2018-06-21T12:23:31.445Z,23.00
2018-06-21T12:26:01.416Z,22.10
2018-06-21T12:28:31.615Z,22.50
2018-06-21T12:31:10.446Z,23.20
2018-06-21T12:33:44.136Z,23.00
2018-06-21T12:36:14.099Z,23.20
2018-06-21T12:38:48.357Z,23.20
2018-06-21T12:41:18.758Z,23.30
2018-06-21T12:43:51.649Z,23.70
2018-06-21T12:46:24.055Z,24.20
2018-06-21T12:48:55.990Z,24.30
2018-06-21T12:53:57.244Z,24.60
2018-06-21T12:56:33.191Z,24.70
2018-06-21T12:59:03.174Z,24.70
2018-06-21T13:01:35.395Z,24.10
2018-06-21T13:04:05.359Z,23.60
2018-06-21T13:06:35.279Z,22.20
2018-06-21T13:09:15.798Z,21.50
2018-06-21T13:12:55.799Z,21.20
2018-06-21T13:15:25.782Z,21.00
2018-06-21T13:20:04.810Z,20.60
2018-06-21T13:22:34.998Z,20.50
2018-06-21T13:25:05.265Z,20.50
2018-06-21T13:27:36.125Z,20.20
2018-06-21T13:30:07.801Z,20.00
2018-06-21T13:32:37.929Z,20.20
2018-06-21T13:35:08.570Z,20.40
2018-06-21T13:37:38.678Z,20.20
2018-06-21T13:40:08.958Z,19.60
2018-06-21T13:42:39.013Z,20.30
2018-06-21T13:45:09.295Z,21.20
2018-06-21T13:47:39.388Z,21.50
2018-06-21T13:50:09.700Z,21.30
2018-06-21T13:52:39.848Z,21.20
2018-06-21T13:55:10.102Z,20.70
2018-06-21T13:57:40.275Z,20.50
2018-06-21T14:00:11.232Z,20.40
2018-06-21T14:02:41.454Z,20.50
2018-06-21T14:05:11.588Z,20.50
2018-06-21T14:07:41.804Z,21.00
2018-06-21T14:10:12.559Z,21.60
2018-06-21T14:12:42.604Z,21.90
2018-06-21T14:15:12.785Z,21.50
2018-06-21T14:17:42.847Z,21.40
2018-06-21T14:20:20.474Z,21.40
2018-06-21T14:22:50.505Z,21.50
2018-06-21T14:25:20.803Z,21.90
2018-06-21T14:27:52.182Z,21.30
2018-06-21T14:30:22.364Z,21.20
2018-06-21T14:32:54.435Z,20.90
2018-06-21T14:35:24.694Z,20.60
2018-06-21T14:37:54.596Z,20.20
2018-06-21T16:32:06.384Z,19.30
2018-06-21T16:34:35.757Z,18.90
2018-06-21T16:37:04.984Z,18.60
2018-06-21T16:39:35.651Z,18.50
2018-06-21T16:42:04.955Z,18.20
2018-06-21T16:44:34.117Z,18.30
2018-06-21T16:47:03.271Z,18.40
2018-06-21T16:49:32.514Z,18.50
2018-06-21T16:52:01.671Z,18.50
2018-06-21T16:54:30.984Z,18.40
2018-06-21T16:57:00.168Z,18.10
2018-06-21T16:59:29.804Z,18.20
2018-06-21T17:01:58.998Z,18.20
2018-06-21T17:04:28.151Z,18.00
2018-06-21T17:06:57.332Z,18.20
2018-06-21T17:09:29.822Z,18.30
2018-06-21T17:12:06.720Z,18.00
2018-06-21T17:14:35.937Z,18.00
2018-06-21T17:30:47.089Z,17.20
2018-06-21T17:33:16.667Z,16.90
2018-06-21T17:35:45.850Z,16.90
2018-06-21T17:38:15.072Z,16.80
2018-06-21T17:40:44.653Z,16.60
2018-06-21T17:43:13.808Z,16.40
2018-06-21T17:45:43.512Z,16.20
2018-06-21T17:48:12.933Z,16.20
2018-06-21T17:50:45.569Z,16.00
2018-06-21T17:53:21.713Z,15.90
2018-06-21T17:55:51.035Z,15.90
2018-06-21T17:58:20.326Z,15.90
2018-06-21T18:00:49.567Z,16.00
2018-06-21T18:03:18.760Z,16.10
2018-06-21T18:05:49.240Z,16.00
2018-06-21T18:08:18.613Z,16.10
2018-06-21T18:10:56.777Z,16.10
2018-06-21T18:13:25.980Z,16.00
2018-06-21T18:15:55.228Z,16.00
2018-06-21T18:18:24.510Z,16.10
2018-06-21T18:20:53.700Z,16.20
2018-06-21T18:23:22.856Z,16.30
2018-06-21T18:25:52.053Z,16.20
2018-06-21T18:28:21.284Z,16.10
2018-06-21T18:30:50.724Z,16.00
2018-06-21T18:33:19.929Z,16.00
2018-06-21T18:35:49.162Z,15.80
2018-06-21T18:38:18.348Z,15.80
2018-06-21T18:40:47.899Z,15.60
2018-06-21T18:43:17.159Z,15.60
2018-06-21T18:45:46.421Z,15.60
2018-06-21T18:48:15.715Z,15.70
2018-06-21T18:50:45.390Z,15.50
2018-06-21T18:55:43.350Z,15.30
2018-06-21T18:58:12.822Z,15.10
2018-06-21T19:00:48.708Z,15.20
2018-06-21T19:03:17.928Z,15.00
2018-06-21T19:10:55.009Z,15.00
2018-06-21T19:13:24.210Z,15.00
2018-06-21T19:15:53.526Z,15.10
2018-06-21T19:18:23.195Z,15.10
2018-06-21T19:20:52.402Z,15.10
2018-06-21T19:23:21.619Z,15.10
2018-06-21T19:26:03.683Z,15.10
2018-06-21T19:28:33.176Z,15.10
2018-06-21T19:31:11.682Z,15.00
2018-06-21T19:33:44.611Z,14.80
2018-06-21T19:36:17.373Z,14.80
2018-06-21T19:38:48.785Z,14.80
2018-06-21T19:41:18.170Z,14.70
2018-06-21T19:43:55.903Z,14.50
2018-06-21T19:46:25.227Z,14.60
2018-06-21T19:48:54.447Z,14.60
2018-06-21T19:51:24.303Z,14.50
2018-06-21T19:53:53.647Z,14.40
2018-06-21T19:56:23.119Z,14.40
2018-06-21T19:58:54.360Z,14.20
2018-06-21T20:01:23.763Z,14.20
2018-06-21T20:03:53.178Z,14.10
2018-06-21T20:06:22.557Z,14.10
2018-06-21T20:08:52.011Z,14.10
2018-06-21T20:11:26.478Z,14.10
2018-06-21T20:13:55.933Z,14.00
2018-06-21T20:16:25.512Z,14.00
2018-06-21T20:18:55.056Z,13.90
2018-06-21T20:21:24.423Z,13.90
2018-06-21T20:23:53.831Z,13.90
2018-06-21T20:26:23.229Z,13.90
2018-06-21T20:28:52.643Z,13.90
2018-06-21T20:31:22.006Z,13.90
2018-06-21T20:33:52.265Z,13.80
2018-06-21T20:36:26.121Z,13.80
2018-06-21T20:38:55.618Z,13.90
2018-06-21T20:41:25.483Z,13.90
2018-06-21T20:43:55.275Z,14.00
2018-06-21T20:46:24.700Z,13.90
2018-06-21T20:48:54.119Z,14.00
2018-06-21T20:51:23.589Z,13.90
2018-06-21T20:53:52.957Z,14.00
2018-06-21T20:56:22.388Z,14.10
2018-06-21T20:58:51.772Z,14.00
2018-06-21T21:01:21.285Z,13.90
2018-06-21T21:03:50.765Z,13.80
2018-06-21T21:06:20.175Z,13.80
2018-06-21T21:08:49.662Z,13.50
2018-06-21T21:11:19.039Z,13.50
2018-06-21T21:13:48.413Z,13.50
2018-06-21T21:16:17.840Z,13.40
2018-06-21T21:18:47.170Z,13.30
2018-06-21T21:21:16.609Z,13.40
2018-06-21T21:23:46.048Z,13.40
2018-06-21T21:26:15.874Z,13.50
2018-06-21T21:28:45.347Z,13.50
2018-06-21T21:31:14.842Z,13.50
2018-06-21T21:33:44.257Z,13.40
2018-06-21T21:36:13.628Z,13.50
2018-06-21T21:38:43.073Z,13.40
2018-06-21T21:41:12.588Z,13.50
2018-06-21T21:43:41.920Z,13.40
2018-06-21T21:46:11.341Z,13.40
2018-06-21T21:48:40.721Z,13.20
2018-06-21T21:51:10.216Z,13.20
2018-06-21T21:53:40.310Z,13.20
2018-06-21T21:56:09.750Z,13.10
2018-06-21T21:58:39.146Z,13.10
2018-06-21T22:01:08.544Z,13.10
2018-06-21T22:03:37.937Z,13.00
2018-06-21T22:06:07.455Z,13.00
2018-06-21T22:08:36.799Z,13.10
2018-06-21T22:11:06.181Z,13.00
2018-06-21T22:13:35.593Z,13.00
2018-06-21T22:16:04.961Z,13.00
2018-06-21T22:18:34.394Z,13.00
2018-06-21T22:21:03.739Z,12.90
2018-06-21T22:23:33.256Z,12.90
2018-06-21T22:26:02.674Z,12.90
2018-06-21T22:28:32.225Z,12.60
2018-06-21T22:31:01.571Z,12.70
2018-06-21T22:33:31.110Z,12.80
2018-06-21T22:36:00.563Z,12.80
2018-06-21T22:38:30.065Z,12.80
2018-06-21T22:40:59.417Z,12.80
2018-06-21T22:43:29.493Z,12.80
2018-06-21T22:48:27.891Z,12.70
2018-06-21T22:50:57.223Z,12.70
2018-06-21T22:53:26.580Z,12.70
2018-06-21T22:55:56.330Z,12.80
2018-06-21T22:58:25.642Z,12.80
2018-06-21T23:00:55.039Z,12.90
2018-06-21T23:03:25.346Z,12.90
2018-06-21T23:05:55.206Z,12.80
2018-06-21T23:08:24.745Z,12.80
2018-06-21T23:10:54.120Z,12.90
2018-06-21T23:13:23.443Z,12.80
2018-06-21T23:15:52.879Z,12.60
2018-06-21T23:18:33.255Z,12.60
2018-06-21T23:21:02.653Z,12.60
2018-06-21T23:23:32.212Z,12.60
2018-06-21T23:26:02.078Z,12.70
2018-06-21T23:28:31.747Z,12.70
2018-06-21T23:33:30.200Z,12.80
2018-06-21T23:36:00.164Z,12.80
2018-06-21T23:38:29.776Z,12.80
2018-06-21T23:40:59.416Z,12.80
2018-06-21T23:43:28.935Z,12.90
2018-06-21T23:45:58.308Z,12.80
2018-06-21T23:48:27.654Z,12.80
2018-06-21T23:50:57.403Z,12.80
2018-06-21T23:53:26.752Z,12.80
2018-06-21T23:55:56.176Z,12.80
2018-06-21T23:58:26.071Z,12.80
